sensor_id;sensor_type;location;lat;lon;timestamp;P1;durP1;ratioP1;P2;durP2;ratioP2
70667;SDS011;58242;51.250;-1.118;2023-02-28T00:00:10;2.25;;;2.15;;
70667;SDS011;58242;51.250;-1.118;2023-02-28T00:02:37;3.43;;;2.30;;
70667;SDS011;58242;51.250;-1.118;2023-02-28T00:05:05;2.33;;;2.03;;
70667;SDS011;58242;51.250;-1.118;2023-02-28T00:07:31;2.42;;;1.95;;
70667;SDS011;58242;51.250;-1.118;2023-02-28T00:09:56;2.10;;;2.00;;
70667;SDS011;58242;51.250;-1.118;2023-02-28T00:12:22;2.42;;;2.22;;
70667;SDS011;58242;51.250;-1.118;2023-02-28T00:14:48;2.35;;;2.13;;
70667;SDS011;58242;51.250;-1.118;2023-02-28T00:17:14;2.55;;;2.40;;
70667;SDS011;58242;51.250;-1.118;2023-02-28T00:19:39;2.28;;;2.10;;
70667;SDS011;58242;51.250;-1.118;2023-02-28T00:22:05;2.83;;;1.90;;
70667;SDS011;58242;51.250;-1.118;2023-02-28T00:24:30;1.88;;;1.77;;
70667;SDS011;58242;51.250;-1.118;2023-02-28T00:26:56;2.28;;;2.17;;
70667;SDS011;58242;51.250;-1.118;2023-02-28T00:29:21;2.00;;;1.90;;
70667;SDS011;58242;51.250;-1.118;2023-02-28T00:31:46;2.75;;;2.25;;
70667;SDS011;58242;51.250;-1.118;2023-02-28T00:34:12;2.40;;;2.20;;
70667;SDS011;58242;51.250;-1.118;2023-02-28T00:36:37;3.47;;;2.47;;
70667;SDS011;58242;51.250;-1.118;2023-02-28T00:39:03;2.08;;;1.98;;
70667;SDS011;58242;51.250;-1.118;2023-02-28T00:41:28;2.15;;;2.05;;
70667;SDS011;58242;51.250;-1.118;2023-02-28T00:43:53;2.40;;;2.20;;
70667;SDS011;58242;51.250;-1.118;2023-02-28T00:46:19;2.10;;;2.00;;
70667;SDS011;58242;51.250;-1.118;2023-02-28T00:48:44;2.00;;;1.90;;
70667;SDS011;58242;51.250;-1.118;2023-02-28T00:51:09;1.98;;;1.88;;
70667;SDS011;58242;51.250;-1.118;2023-02-28T00:53:35;2.53;;;2.10;;
70667;SDS011;58242;51.250;-1.118;2023-02-28T00:56:00;2.35;;;2.10;;
70667;SDS011;58242;51.250;-1.118;2023-02-28T00:58:26;2.20;;;2.10;;
70667;SDS011;58242;51.250;-1.118;2023-02-28T01:00:51;2.50;;;2.30;;
70667;SDS011;58242;51.250;-1.118;2023-02-28T01:03:18;2.20;;;2.10;;
70667;SDS011;58242;51.250;-1.118;2023-02-28T01:05:43;2.10;;;2.00;;
70667;SDS011;58242;51.250;-1.118;2023-02-28T01:08:09;2.50;;;2.40;;
70667;SDS011;58242;51.250;-1.118;2023-02-28T01:10:34;2.30;;;2.20;;
70667;SDS011;58242;51.250;-1.118;2023-02-28T01:13:01;2.72;;;2.50;;
70667;SDS011;58242;51.250;-1.118;2023-02-28T01:15:27;2.33;;;2.05;;
70667;SDS011;58242;51.250;-1.118;2023-02-28T01:17:52;3.38;;;2.63;;
70667;SDS011;58242;51.250;-1.118;2023-02-28T01:20:18;2.10;;;2.00;;
70667;SDS011;58242;51.250;-1.118;2023-02-28T01:22:43;2.30;;;2.20;;
70667;SDS011;58242;51.250;-1.118;2023-02-28T01:25:08;3.00;;;2.30;;
70667;SDS011;58242;51.250;-1.118;2023-02-28T01:27:34;3.05;;;2.70;;
70667;SDS011;58242;51.250;-1.118;2023-02-28T01:30:00;2.80;;;2.60;;
70667;SDS011;58242;51.250;-1.118;2023-02-28T01:32:26;2.92;;;2.55;;
70667;SDS011;58242;51.250;-1.118;2023-02-28T01:34:51;2.47;;;2.28;;
70667;SDS011;58242;51.250;-1.118;2023-02-28T01:37:16;3.35;;;2.25;;
70667;SDS011;58242;51.250;-1.118;2023-02-28T01:39:42;2.40;;;2.30;;
70667;SDS011;58242;51.250;-1.118;2023-02-28T01:42:08;2.55;;;2.45;;
70667;SDS011;58242;51.250;-1.118;2023-02-28T01:47:21;2.72;;;2.53;;
70667;SDS011;58242;51.250;-1.118;2023-02-28T01:49:47;2.70;;;2.55;;
70667;SDS011;58242;51.250;-1.118;2023-02-28T01:52:13;2.30;;;2.00;;
70667;SDS011;58242;51.250;-1.118;2023-02-28T01:54:43;2.50;;;2.40;;
70667;SDS011;58242;51.250;-1.118;2023-02-28T01:57:13;2.30;;;2.20;;
70667;SDS011;58242;51.250;-1.118;2023-02-28T02:00:00;2.40;;;2.30;;
70667;SDS011;58242;51.250;-1.118;2023-02-28T02:02:31;2.40;;;2.30;;
70667;SDS011;58242;51.250;-1.118;2023-02-28T02:04:57;2.53;;;2.42;;
70667;SDS011;58242;51.250;-1.118;2023-02-28T02:07:31;2.13;;;2.03;;
70667;SDS011;58242;51.250;-1.118;2023-02-28T02:10:21;2.78;;;2.58;;
70667;SDS011;58242;51.250;-1.118;2023-02-28T02:15:49;2.40;;;2.30;;
70667;SDS011;58242;51.250;-1.118;2023-02-28T02:18:24;2.53;;;2.43;;
70667;SDS011;58242;51.250;-1.118;2023-02-28T02:21:13;2.30;;;2.20;;
70667;SDS011;58242;51.250;-1.118;2023-02-28T02:23:53;2.53;;;2.33;;
70667;SDS011;58242;51.250;-1.118;2023-02-28T02:29:16;2.22;;;1.98;;
70667;SDS011;58242;51.250;-1.118;2023-02-28T02:37:36;3.10;;;2.90;;
70667;SDS011;58242;51.250;-1.118;2023-02-28T02:40:14;2.38;;;2.28;;
70667;SDS011;58242;51.250;-1.118;2023-02-28T02:45:32;2.17;;;2.08;;
70667;SDS011;58242;51.250;-1.118;2023-02-28T02:48:02;2.60;;;2.50;;
70667;SDS011;58242;51.250;-1.118;2023-02-28T02:50:33;2.30;;;2.20;;
70667;SDS011;58242;51.250;-1.118;2023-02-28T02:53:03;2.40;;;2.22;;
70667;SDS011;58242;51.250;-1.118;2023-02-28T02:55:31;2.40;;;2.30;;
70667;SDS011;58242;51.250;-1.118;2023-02-28T03:00:38;2.13;;;2.03;;
70667;SDS011;58242;51.250;-1.118;2023-02-28T03:03:12;2.22;;;2.13;;
70667;SDS011;58242;51.250;-1.118;2023-02-28T03:05:48;2.38;;;2.28;;
70667;SDS011;58242;51.250;-1.118;2023-02-28T03:08:15;2.15;;;2.05;;
70667;SDS011;58242;51.250;-1.118;2023-02-28T03:10:45;2.53;;;2.42;;
70667;SDS011;58242;51.250;-1.118;2023-02-28T03:15:45;2.45;;;2.30;;
70667;SDS011;58242;51.250;-1.118;2023-02-28T03:21:11;2.63;;;2.42;;
70667;SDS011;58242;51.250;-1.118;2023-02-28T03:23:45;2.50;;;2.40;;
70667;SDS011;58242;51.250;-1.118;2023-02-28T03:26:24;2.40;;;2.30;;
70667;SDS011;58242;51.250;-1.118;2023-02-28T03:31:41;2.58;;;2.40;;
70667;SDS011;58242;51.250;-1.118;2023-02-28T03:34:17;2.97;;;2.50;;
70667;SDS011;58242;51.250;-1.118;2023-02-28T03:36:51;4.03;;;2.60;;
70667;SDS011;58242;51.250;-1.118;2023-02-28T03:39:27;2.72;;;2.50;;
70667;SDS011;58242;51.250;-1.118;2023-02-28T03:41:57;3.38;;;2.35;;
70667;SDS011;58242;51.250;-1.118;2023-02-28T03:44:28;3.15;;;2.53;;
70667;SDS011;58242;51.250;-1.118;2023-02-28T03:47:02;3.05;;;2.85;;
70667;SDS011;58242;51.250;-1.118;2023-02-28T03:49:32;2.85;;;2.65;;
70667;SDS011;58242;51.250;-1.118;2023-02-28T03:52:04;2.78;;;2.63;;
70667;SDS011;58242;51.250;-1.118;2023-02-28T03:54:32;2.50;;;2.40;;
70667;SDS011;58242;51.250;-1.118;2023-02-28T03:57:04;2.75;;;2.63;;
70667;SDS011;58242;51.250;-1.118;2023-02-28T03:59:37;3.10;;;2.83;;
70667;SDS011;58242;51.250;-1.118;2023-02-28T04:02:06;3.25;;;3.05;;
70667;SDS011;58242;51.250;-1.118;2023-02-28T04:04:32;3.00;;;2.80;;
70667;SDS011;58242;51.250;-1.118;2023-02-28T04:07:03;2.80;;;2.60;;
70667;SDS011;58242;51.250;-1.118;2023-02-28T04:09:30;2.70;;;2.60;;
70667;SDS011;58242;51.250;-1.118;2023-02-28T04:11:55;2.70;;;2.60;;
70667;SDS011;58242;51.250;-1.118;2023-02-28T04:14:21;2.65;;;2.55;;
70667;SDS011;58242;51.250;-1.118;2023-02-28T04:16:47;4.57;;;2.60;;
70667;SDS011;58242;51.250;-1.118;2023-02-28T04:19:12;3.20;;;3.08;;
70667;SDS011;58242;51.250;-1.118;2023-02-28T04:21:49;2.88;;;2.67;;
70667;SDS011;58242;51.250;-1.118;2023-02-28T04:24:17;3.28;;;2.95;;
70667;SDS011;58242;51.250;-1.118;2023-02-28T04:26:48;3.00;;;2.80;;
70667;SDS011;58242;51.250;-1.118;2023-02-28T04:29:22;2.67;;;2.47;;
70667;SDS011;58242;51.250;-1.118;2023-02-28T04:31:48;3.25;;;2.97;;
70667;SDS011;58242;51.250;-1.118;2023-02-28T04:34:14;3.97;;;2.90;;
70667;SDS011;58242;51.250;-1.118;2023-02-28T04:36:39;3.10;;;3.00;;
70667;SDS011;58242;51.250;-1.118;2023-02-28T04:39:05;2.92;;;2.78;;
70667;SDS011;58242;51.250;-1.118;2023-02-28T04:41:30;3.00;;;2.80;;
70667;SDS011;58242;51.250;-1.118;2023-02-28T04:43:55;3.08;;;2.97;;
70667;SDS011;58242;51.250;-1.118;2023-02-28T04:46:21;3.20;;;3.00;;
70667;SDS011;58242;51.250;-1.118;2023-02-28T04:48:46;2.92;;;2.72;;
70667;SDS011;58242;51.250;-1.118;2023-02-28T04:51:12;3.55;;;3.25;;
70667;SDS011;58242;51.250;-1.118;2023-02-28T04:53:39;3.05;;;2.88;;
70667;SDS011;58242;51.250;-1.118;2023-02-28T04:56:06;3.45;;;3.15;;
70667;SDS011;58242;51.250;-1.118;2023-02-28T04:58:33;3.00;;;2.90;;
70667;SDS011;58242;51.250;-1.118;2023-02-28T05:01:02;3.83;;;3.53;;
70667;SDS011;58242;51.250;-1.118;2023-02-28T05:03:40;3.10;;;3.00;;
70667;SDS011;58242;51.250;-1.118;2023-02-28T05:06:07;3.03;;;2.92;;
70667;SDS011;58242;51.250;-1.118;2023-02-28T05:08:33;3.40;;;3.20;;
70667;SDS011;58242;51.250;-1.118;2023-02-28T05:10:58;3.58;;;3.38;;
70667;SDS011;58242;51.250;-1.118;2023-02-28T05:13:25;3.40;;;3.20;;
70667;SDS011;58242;51.250;-1.118;2023-02-28T05:15:51;3.50;;;3.30;;
70667;SDS011;58242;51.250;-1.118;2023-02-28T05:18:16;2.85;;;2.65;;
70667;SDS011;58242;51.250;-1.118;2023-02-28T05:20:42;2.92;;;2.70;;
70667;SDS011;58242;51.250;-1.118;2023-02-28T05:23:07;2.50;;;2.35;;
70667;SDS011;58242;51.250;-1.118;2023-02-28T05:25:35;3.10;;;2.90;;
70667;SDS011;58242;51.250;-1.118;2023-02-28T05:28:01;3.17;;;2.67;;
70667;SDS011;58242;51.250;-1.118;2023-02-28T05:30:26;2.70;;;2.60;;
70667;SDS011;58242;51.250;-1.118;2023-02-28T05:32:51;2.92;;;2.83;;
70667;SDS011;58242;51.250;-1.118;2023-02-28T05:35:16;3.15;;;2.95;;
70667;SDS011;58242;51.250;-1.118;2023-02-28T05:37:42;3.08;;;2.97;;
70667;SDS011;58242;51.250;-1.118;2023-02-28T05:40:07;4.13;;;3.50;;
70667;SDS011;58242;51.250;-1.118;2023-02-28T05:42:36;3.65;;;3.45;;
70667;SDS011;58242;51.250;-1.118;2023-02-28T05:45:02;4.25;;;3.20;;
70667;SDS011;58242;51.250;-1.118;2023-02-28T05:47:28;3.33;;;3.10;;
70667;SDS011;58242;51.250;-1.118;2023-02-28T05:49:53;3.90;;;3.60;;
70667;SDS011;58242;51.250;-1.118;2023-02-28T05:52:18;2.92;;;2.83;;
70667;SDS011;58242;51.250;-1.118;2023-02-28T05:54:44;3.47;;;3.28;;
70667;SDS011;58242;51.250;-1.118;2023-02-28T05:57:11;3.40;;;3.20;;
70667;SDS011;58242;51.250;-1.118;2023-02-28T05:59:36;3.17;;;2.97;;
70667;SDS011;58242;51.250;-1.118;2023-02-28T06:02:04;4.03;;;3.85;;
70667;SDS011;58242;51.250;-1.118;2023-02-28T06:04:37;3.70;;;3.40;;
70667;SDS011;58242;51.250;-1.118;2023-02-28T06:07:03;4.50;;;4.20;;
70667;SDS011;58242;51.250;-1.118;2023-02-28T06:09:28;3.75;;;3.53;;
70667;SDS011;58242;51.250;-1.118;2023-02-28T06:11:54;3.92;;;3.25;;
70667;SDS011;58242;51.250;-1.118;2023-02-28T06:14:19;3.92;;;3.63;;
70667;SDS011;58242;51.250;-1.118;2023-02-28T06:16:45;3.45;;;3.35;;
70667;SDS011;58242;51.250;-1.118;2023-02-28T06:19:11;5.38;;;4.18;;
70667;SDS011;58242;51.250;-1.118;2023-02-28T06:21:37;3.40;;;3.30;;
70667;SDS011;58242;51.250;-1.118;2023-02-28T06:24:03;3.72;;;3.53;;
70667;SDS011;58242;51.250;-1.118;2023-02-28T06:26:28;3.70;;;3.55;;
70667;SDS011;58242;51.250;-1.118;2023-02-28T06:28:54;3.90;;;3.70;;
70667;SDS011;58242;51.250;-1.118;2023-02-28T06:31:20;3.75;;;3.55;;
70667;SDS011;58242;51.250;-1.118;2023-02-28T06:33:45;4.40;;;4.20;;
70667;SDS011;58242;51.250;-1.118;2023-02-28T06:36:12;3.92;;;3.72;;
70667;SDS011;58242;51.250;-1.118;2023-02-28T06:38:38;4.35;;;3.95;;
70667;SDS011;58242;51.250;-1.118;2023-02-28T06:41:04;4.13;;;3.92;;
70667;SDS011;58242;51.250;-1.118;2023-02-28T06:43:32;4.72;;;4.32;;
70667;SDS011;58242;51.250;-1.118;2023-02-28T06:46:01;4.10;;;3.90;;
70667;SDS011;58242;51.250;-1.118;2023-02-28T06:48:28;4.15;;;3.95;;
70667;SDS011;58242;51.250;-1.118;2023-02-28T06:53:41;4.70;;;4.30;;
70667;SDS011;58242;51.250;-1.118;2023-02-28T06:56:08;4.38;;;4.15;;
70667;SDS011;58242;51.250;-1.118;2023-02-28T06:58:38;4.22;;;4.03;;
70667;SDS011;58242;51.250;-1.118;2023-02-28T07:01:05;4.40;;;4.20;;
70667;SDS011;58242;51.250;-1.118;2023-02-28T07:03:30;3.92;;;3.72;;
70667;SDS011;58242;51.250;-1.118;2023-02-28T07:05:56;4.38;;;4.07;;
70667;SDS011;58242;51.250;-1.118;2023-02-28T07:08:22;4.25;;;4.05;;
70667;SDS011;58242;51.250;-1.118;2023-02-28T07:10:52;4.63;;;4.38;;
70667;SDS011;58242;51.250;-1.118;2023-02-28T07:13:18;4.43;;;4.15;;
70667;SDS011;58242;51.250;-1.118;2023-02-28T07:15:44;4.90;;;4.60;;
70667;SDS011;58242;51.250;-1.118;2023-02-28T07:18:09;4.15;;;3.95;;
70667;SDS011;58242;51.250;-1.118;2023-02-28T07:20:35;4.47;;;4.22;;
70667;SDS011;58242;51.250;-1.118;2023-02-28T07:23:00;4.93;;;4.63;;
70667;SDS011;58242;51.250;-1.118;2023-02-28T07:25:26;4.47;;;4.20;;
70667;SDS011;58242;51.250;-1.118;2023-02-28T07:27:53;4.50;;;4.20;;
70667;SDS011;58242;51.250;-1.118;2023-02-28T07:30:19;4.53;;;4.20;;
70667;SDS011;58242;51.250;-1.118;2023-02-28T07:32:44;4.95;;;4.65;;
70667;SDS011;58242;51.250;-1.118;2023-02-28T07:35:10;4.50;;;4.20;;
70667;SDS011;58242;51.250;-1.118;2023-02-28T07:37:36;5.45;;;4.90;;
70667;SDS011;58242;51.250;-1.118;2023-02-28T07:40:02;4.20;;;3.90;;
70667;SDS011;58242;51.250;-1.118;2023-02-28T07:42:33;4.97;;;4.57;;
70667;SDS011;58242;51.250;-1.118;2023-02-28T07:44:59;5.05;;;4.65;;
70667;SDS011;58242;51.250;-1.118;2023-02-28T07:47:24;4.30;;;4.00;;
70667;SDS011;58242;51.250;-1.118;2023-02-28T07:49:50;4.53;;;4.22;;
70667;SDS011;58242;51.250;-1.118;2023-02-28T07:52:15;4.85;;;4.45;;
70667;SDS011;58242;51.250;-1.118;2023-02-28T07:54:40;5.57;;;5.10;;
70667;SDS011;58242;51.250;-1.118;2023-02-28T07:57:06;4.80;;;4.45;;
70667;SDS011;58242;51.250;-1.118;2023-02-28T07:59:31;4.63;;;4.32;;
70667;SDS011;58242;51.250;-1.118;2023-02-28T08:01:57;4.90;;;4.53;;
70667;SDS011;58242;51.250;-1.118;2023-02-28T08:04:22;5.63;;;5.22;;
70667;SDS011;58242;51.250;-1.118;2023-02-28T08:06:47;14.82;;;6.88;;
70667;SDS011;58242;51.250;-1.118;2023-02-28T08:09:13;6.10;;;5.45;;
70667;SDS011;58242;51.250;-1.118;2023-02-28T08:11:39;6.40;;;5.78;;
70667;SDS011;58242;51.250;-1.118;2023-02-28T08:14:04;6.13;;;5.63;;
70667;SDS011;58242;51.250;-1.118;2023-02-28T08:16:30;5.97;;;5.13;;
70667;SDS011;58242;51.250;-1.118;2023-02-28T08:18:56;6.53;;;5.32;;
70667;SDS011;58242;51.250;-1.118;2023-02-28T08:21:21;4.82;;;4.40;;
70667;SDS011;58242;51.250;-1.118;2023-02-28T08:23:47;6.15;;;5.57;;
70667;SDS011;58242;51.250;-1.118;2023-02-28T08:26:14;5.43;;;4.63;;
70667;SDS011;58242;51.250;-1.118;2023-02-28T08:28:40;6.25;;;5.45;;
70667;SDS011;58242;51.250;-1.118;2023-02-28T08:31:09;5.10;;;4.63;;
70667;SDS011;58242;51.250;-1.118;2023-02-28T08:33:39;4.93;;;4.53;;
70667;SDS011;58242;51.250;-1.118;2023-02-28T08:36:05;5.82;;;5.20;;
70667;SDS011;58242;51.250;-1.118;2023-02-28T08:38:32;6.80;;;5.18;;
70667;SDS011;58242;51.250;-1.118;2023-02-28T08:40:58;6.25;;;5.63;;
70667;SDS011;58242;51.250;-1.118;2023-02-28T08:43:31;5.90;;;5.32;;
70667;SDS011;58242;51.250;-1.118;2023-02-28T08:45:56;6.70;;;5.60;;
70667;SDS011;58242;51.250;-1.118;2023-02-28T08:48:25;6.38;;;5.78;;
70667;SDS011;58242;51.250;-1.118;2023-02-28T08:50:55;5.53;;;4.95;;
70667;SDS011;58242;51.250;-1.118;2023-02-28T08:53:20;5.40;;;4.90;;
70667;SDS011;58242;51.250;-1.118;2023-02-28T08:55:46;4.85;;;4.45;;
70667;SDS011;58242;51.250;-1.118;2023-02-28T08:58:11;5.43;;;4.78;;
70667;SDS011;58242;51.250;-1.118;2023-02-28T09:00:36;4.15;;;3.85;;
70667;SDS011;58242;51.250;-1.118;2023-02-28T09:03:02;4.97;;;4.57;;
70667;SDS011;58242;51.250;-1.118;2023-02-28T09:05:27;5.18;;;4.75;;
70667;SDS011;58242;51.250;-1.118;2023-02-28T09:07:54;5.63;;;5.22;;
70667;SDS011;58242;51.250;-1.118;2023-02-28T09:10:19;4.53;;;4.13;;
70667;SDS011;58242;51.250;-1.118;2023-02-28T09:12:44;4.78;;;4.47;;
70667;SDS011;58242;51.250;-1.118;2023-02-28T09:15:12;4.57;;;4.28;;
70667;SDS011;58242;51.250;-1.118;2023-02-28T09:17:37;4.05;;;3.75;;
70667;SDS011;58242;51.250;-1.118;2023-02-28T09:20:03;4.35;;;4.05;;
70667;SDS011;58242;51.250;-1.118;2023-02-28T09:22:29;4.05;;;3.75;;
70667;SDS011;58242;51.250;-1.118;2023-02-28T09:24:55;3.78;;;3.47;;
70667;SDS011;58242;51.250;-1.118;2023-02-28T09:27:20;4.32;;;4.13;;
70667;SDS011;58242;51.250;-1.118;2023-02-28T09:29:46;3.40;;;3.20;;
70667;SDS011;58242;51.250;-1.118;2023-02-28T09:32:11;4.25;;;3.95;;
70667;SDS011;58242;51.250;-1.118;2023-02-28T09:34:37;4.25;;;3.95;;
70667;SDS011;58242;51.250;-1.118;2023-02-28T09:37:03;4.57;;;4.28;;
70667;SDS011;58242;51.250;-1.118;2023-02-28T09:39:28;4.90;;;4.60;;
70667;SDS011;58242;51.250;-1.118;2023-02-28T09:41:54;4.78;;;4.43;;
70667;SDS011;58242;51.250;-1.118;2023-02-28T09:44:37;4.22;;;4.03;;
70667;SDS011;58242;51.250;-1.118;2023-02-28T09:47:22;4.72;;;4.43;;
70667;SDS011;58242;51.250;-1.118;2023-02-28T09:49:50;4.50;;;4.20;;
70667;SDS011;58242;51.250;-1.118;2023-02-28T09:52:20;4.60;;;4.20;;
70667;SDS011;58242;51.250;-1.118;2023-02-28T09:54:48;4.15;;;3.85;;
70667;SDS011;58242;51.250;-1.118;2023-02-28T10:00:13;3.58;;;3.30;;
70667;SDS011;58242;51.250;-1.118;2023-02-28T10:05:30;4.30;;;4.00;;
70667;SDS011;58242;51.250;-1.118;2023-02-28T10:08:08;4.30;;;4.00;;
70667;SDS011;58242;51.250;-1.118;2023-02-28T10:10:46;4.93;;;4.53;;
70667;SDS011;58242;51.250;-1.118;2023-02-28T10:15:59;4.00;;;3.70;;
70667;SDS011;58242;51.250;-1.118;2023-02-28T10:18:30;3.72;;;3.53;;
70667;SDS011;58242;51.250;-1.118;2023-02-28T10:21:08;4.55;;;4.15;;
70667;SDS011;58242;51.250;-1.118;2023-02-28T10:23:43;3.20;;;3.00;;
70667;SDS011;58242;51.250;-1.118;2023-02-28T10:26:13;3.67;;;3.38;;
70667;SDS011;58242;51.250;-1.118;2023-02-28T10:28:44;3.90;;;3.60;;
70667;SDS011;58242;51.250;-1.118;2023-02-28T10:31:18;3.53;;;3.30;;
70667;SDS011;58242;51.250;-1.118;2023-02-28T10:33:44;2.95;;;2.75;;
70667;SDS011;58242;51.250;-1.118;2023-02-28T10:36:12;3.20;;;3.00;;
70667;SDS011;58242;51.250;-1.118;2023-02-28T10:38:40;2.97;;;2.88;;
70667;SDS011;58242;51.250;-1.118;2023-02-28T10:43:35;3.10;;;2.90;;
70667;SDS011;58242;51.250;-1.118;2023-02-28T10:46:04;3.63;;;3.33;;
70667;SDS011;58242;51.250;-1.118;2023-02-28T10:48:38;4.25;;;3.95;;
70667;SDS011;58242;51.250;-1.118;2023-02-28T10:51:08;3.53;;;3.15;;
70667;SDS011;58242;51.250;-1.118;2023-02-28T10:53:46;3.95;;;3.65;;
70667;SDS011;58242;51.250;-1.118;2023-02-28T10:56:15;3.55;;;3.25;;
70667;SDS011;58242;51.250;-1.118;2023-02-28T10:58:55;4.03;;;3.72;;
70667;SDS011;58242;51.250;-1.118;2023-02-28T11:04:03;3.40;;;3.20;;
70667;SDS011;58242;51.250;-1.118;2023-02-28T11:06:42;3.22;;;3.03;;
70667;SDS011;58242;51.250;-1.118;2023-02-28T11:09:23;4.75;;;4.30;;
70667;SDS011;58242;51.250;-1.118;2023-02-28T11:11:54;3.83;;;3.55;;
70667;SDS011;58242;51.250;-1.118;2023-02-28T11:16:45;3.47;;;3.28;;
70667;SDS011;58242;51.250;-1.118;2023-02-28T11:19:16;3.00;;;2.80;;
70667;SDS011;58242;51.250;-1.118;2023-02-28T11:21:52;2.70;;;2.60;;
70667;SDS011;58242;51.250;-1.118;2023-02-28T11:24:27;3.00;;;2.80;;
70667;SDS011;58242;51.250;-1.118;2023-02-28T11:26:55;3.30;;;3.10;;
70667;SDS011;58242;51.250;-1.118;2023-02-28T11:29:22;3.47;;;3.13;;
70667;SDS011;58242;51.250;-1.118;2023-02-28T11:34:38;3.60;;;3.30;;
70667;SDS011;58242;51.250;-1.118;2023-02-28T11:37:05;3.60;;;3.33;;
70667;SDS011;58242;51.250;-1.118;2023-02-28T11:39:36;2.83;;;2.63;;
70667;SDS011;58242;51.250;-1.118;2023-02-28T11:45:20;3.00;;;2.80;;
70667;SDS011;58242;51.250;-1.118;2023-02-28T11:50:45;3.67;;;3.30;;
70667;SDS011;58242;51.250;-1.118;2023-02-28T11:56:00;2.90;;;2.70;;
70667;SDS011;58242;51.250;-1.118;2023-02-28T12:01:15;3.35;;;3.15;;
70667;SDS011;58242;51.250;-1.118;2023-02-28T12:03:50;3.30;;;3.10;;
70667;SDS011;58242;51.250;-1.118;2023-02-28T12:06:25;3.05;;;2.85;;
70667;SDS011;58242;51.250;-1.118;2023-02-28T12:24:59;2.80;;;2.60;;
70667;SDS011;58242;51.250;-1.118;2023-02-28T12:27:27;2.70;;;2.50;;
70667;SDS011;58242;51.250;-1.118;2023-02-28T12:32:45;2.63;;;2.53;;
70667;SDS011;58242;51.250;-1.118;2023-02-28T12:35:16;2.22;;;2.13;;
70667;SDS011;58242;51.250;-1.118;2023-02-28T12:37:55;2.70;;;2.50;;
70667;SDS011;58242;51.250;-1.118;2023-02-28T12:40:34;3.13;;;2.92;;
70667;SDS011;58242;51.250;-1.118;2023-02-28T12:43:21;3.40;;;3.20;;
70667;SDS011;58242;51.250;-1.118;2023-02-28T12:45:54;3.50;;;3.30;;
70667;SDS011;58242;51.250;-1.118;2023-02-28T12:48:31;2.83;;;2.60;;
70667;SDS011;58242;51.250;-1.118;2023-02-28T12:51:05;2.03;;;1.92;;
70667;SDS011;58242;51.250;-1.118;2023-02-28T12:53:45;2.20;;;2.10;;
70667;SDS011;58242;51.250;-1.118;2023-02-28T12:58:59;2.27;;;2.17;;
70667;SDS011;58242;51.250;-1.118;2023-02-28T13:01:41;3.22;;;2.95;;
70667;SDS011;58242;51.250;-1.118;2023-02-28T13:10:14;3.00;;;2.90;;
70667;SDS011;58242;51.250;-1.118;2023-02-28T13:12:48;2.80;;;2.70;;
70667;SDS011;58242;51.250;-1.118;2023-02-28T13:15:20;2.65;;;2.55;;
70667;SDS011;58242;51.250;-1.118;2023-02-28T13:17:51;3.15;;;2.95;;
70667;SDS011;58242;51.250;-1.118;2023-02-28T13:20:19;2.30;;;2.20;;
70667;SDS011;58242;51.250;-1.118;2023-02-28T13:22:50;2.67;;;2.47;;
70667;SDS011;58242;51.250;-1.118;2023-02-28T13:27:58;2.75;;;2.65;;
70667;SDS011;58242;51.250;-1.118;2023-02-28T13:36:28;2.70;;;2.58;;
70667;SDS011;58242;51.250;-1.118;2023-02-28T13:38:57;2.05;;;1.95;;
70667;SDS011;58242;51.250;-1.118;2023-02-28T13:46:31;2.28;;;2.17;;
70667;SDS011;58242;51.250;-1.118;2023-02-28T13:49:40;2.38;;;2.28;;
70667;SDS011;58242;51.250;-1.118;2023-02-28T14:03:33;2.40;;;2.30;;
70667;SDS011;58242;51.250;-1.118;2023-02-28T14:06:25;4.10;;;2.00;;
70667;SDS011;58242;51.250;-1.118;2023-02-28T14:14:03;2.55;;;2.35;;
70667;SDS011;58242;51.250;-1.118;2023-02-28T14:16:37;2.28;;;2.17;;
70667;SDS011;58242;51.250;-1.118;2023-02-28T14:19:12;2.50;;;2.30;;
70667;SDS011;58242;51.250;-1.118;2023-02-28T14:21:51;2.30;;;2.20;;
70667;SDS011;58242;51.250;-1.118;2023-02-28T14:24:24;2.05;;;1.95;;
70667;SDS011;58242;51.250;-1.118;2023-02-28T14:34:54;2.00;;;1.90;;
70667;SDS011;58242;51.250;-1.118;2023-02-28T14:37:29;2.30;;;2.20;;
70667;SDS011;58242;51.250;-1.118;2023-02-28T14:39:58;2.55;;;2.35;;
70667;SDS011;58242;51.250;-1.118;2023-02-28T14:42:33;3.03;;;2.83;;
70667;SDS011;58242;51.250;-1.118;2023-02-28T14:45:00;2.08;;;1.98;;
70667;SDS011;58242;51.250;-1.118;2023-02-28T14:47:27;2.17;;;2.08;;
70667;SDS011;58242;51.250;-1.118;2023-02-28T14:49:56;2.08;;;2.00;;
70667;SDS011;58242;51.250;-1.118;2023-02-28T14:52:27;2.20;;;2.10;;
70667;SDS011;58242;51.250;-1.118;2023-02-28T14:54:58;2.15;;;2.05;;
70667;SDS011;58242;51.250;-1.118;2023-02-28T14:57:28;1.88;;;1.80;;
70667;SDS011;58242;51.250;-1.118;2023-02-28T15:02:39;1.90;;;1.80;;
70667;SDS011;58242;51.250;-1.118;2023-02-28T15:07:46;1.80;;;1.70;;
70667;SDS011;58242;51.250;-1.118;2023-02-28T15:10:20;1.70;;;1.70;;
70667;SDS011;58242;51.250;-1.118;2023-02-28T15:13:11;1.70;;;1.70;;
70667;SDS011;58242;51.250;-1.118;2023-02-28T15:15:41;1.90;;;1.80;;
70667;SDS011;58242;51.250;-1.118;2023-02-28T15:21:06;2.15;;;2.05;;
70667;SDS011;58242;51.250;-1.118;2023-02-28T15:23:36;2.08;;;1.98;;
70667;SDS011;58242;51.250;-1.118;2023-02-28T15:26:02;2.75;;;2.38;;
70667;SDS011;58242;51.250;-1.118;2023-02-28T15:28:28;2.20;;;2.10;;
70667;SDS011;58242;51.250;-1.118;2023-02-28T15:30:58;2.40;;;2.20;;
70667;SDS011;58242;51.250;-1.118;2023-02-28T15:33:26;2.40;;;2.17;;
70667;SDS011;58242;51.250;-1.118;2023-02-28T15:36:06;2.08;;;1.98;;
70667;SDS011;58242;51.250;-1.118;2023-02-28T15:38:38;2.17;;;2.08;;
70667;SDS011;58242;51.250;-1.118;2023-02-28T15:41:03;2.05;;;1.95;;
70667;SDS011;58242;51.250;-1.118;2023-02-28T15:43:34;2.35;;;2.22;;
70667;SDS011;58242;51.250;-1.118;2023-02-28T15:48:33;2.30;;;2.20;;
70667;SDS011;58242;51.250;-1.118;2023-02-28T15:53:37;2.00;;;1.90;;
70667;SDS011;58242;51.250;-1.118;2023-02-28T15:56:28;1.70;;;1.70;;
70667;SDS011;58242;51.250;-1.118;2023-02-28T15:58:59;2.35;;;2.13;;
70667;SDS011;58242;51.250;-1.118;2023-02-28T16:01:27;2.05;;;1.92;;
70667;SDS011;58242;51.250;-1.118;2023-02-28T16:03:59;2.05;;;1.95;;
70667;SDS011;58242;51.250;-1.118;2023-02-28T16:06:34;1.90;;;1.80;;
70667;SDS011;58242;51.250;-1.118;2023-02-28T16:09:00;2.50;;;2.40;;
70667;SDS011;58242;51.250;-1.118;2023-02-28T16:11:26;2.00;;;1.90;;
70667;SDS011;58242;51.250;-1.118;2023-02-28T16:13:51;1.85;;;1.80;;
70667;SDS011;58242;51.250;-1.118;2023-02-28T16:16:21;2.25;;;2.10;;
70667;SDS011;58242;51.250;-1.118;2023-02-28T16:18:49;2.40;;;1.90;;
70667;SDS011;58242;51.250;-1.118;2023-02-28T16:21:15;2.20;;;2.10;;
70667;SDS011;58242;51.250;-1.118;2023-02-28T16:23:40;2.15;;;2.05;;
70667;SDS011;58242;51.250;-1.118;2023-02-28T16:26:06;2.10;;;2.00;;
70667;SDS011;58242;51.250;-1.118;2023-02-28T16:28:34;2.30;;;2.20;;
70667;SDS011;58242;51.250;-1.118;2023-02-28T16:31:01;2.58;;;2.47;;
70667;SDS011;58242;51.250;-1.118;2023-02-28T16:33:29;2.28;;;2.17;;
70667;SDS011;58242;51.250;-1.118;2023-02-28T16:35:55;2.10;;;2.00;;
70667;SDS011;58242;51.250;-1.118;2023-02-28T16:38:20;1.98;;;1.88;;
70667;SDS011;58242;51.250;-1.118;2023-02-28T16:40:46;1.90;;;1.90;;
70667;SDS011;58242;51.250;-1.118;2023-02-28T16:43:15;2.10;;;2.00;;
70667;SDS011;58242;51.250;-1.118;2023-02-28T16:45:43;2.30;;;2.20;;
70667;SDS011;58242;51.250;-1.118;2023-02-28T16:48:13;1.95;;;1.88;;
70667;SDS011;58242;51.250;-1.118;2023-02-28T16:50:40;2.28;;;2.17;;
70667;SDS011;58242;51.250;-1.118;2023-02-28T16:53:06;1.77;;;1.67;;
70667;SDS011;58242;51.250;-1.118;2023-02-28T16:55:31;2.13;;;1.98;;
70667;SDS011;58242;51.250;-1.118;2023-02-28T16:57:58;2.20;;;2.10;;
70667;SDS011;58242;51.250;-1.118;2023-02-28T17:00:25;2.22;;;2.13;;
70667;SDS011;58242;51.250;-1.118;2023-02-28T17:02:52;2.35;;;2.17;;